• Join FlightAware (Why Join?)
  • Login
  • US Flag 
11:38AM EDT


 

Airport Tracker/Info


-or-


 

Live Flight TrackerFlight Track Log ✈ EJA831 ✈ 23-Jul-2013 ✈ KBHM - CYYB

Flight Track Log - Related Links

Times and Time Zones

All times are in EDT time to prevent confusion due to time zone crossing. See the EJA831 flight status page for this flight to view local times or setup timezone preferences in your user account.

Time Position Orientation Groundspeed Altitude Reporting Facility
EDT Latitude Longitude Course Direction KTS MPH feet Rate Location/Type
12:05PM 33.5575 -86.7683 260° West 158 182 1,400  Level Atlanta Center
12:06PM 33.5453 -86.8478 260° West 204 235 5,800 3,000 Climbing Atlanta Center
12:07PM 33.5572 -86.8731 300° West 210 242 7,200 3,060 Climbing Atlanta Center
12:08PM 33.6022 -86.9069 328° Northwest 202 232 10,700 3,420 Climbing Atlanta Center
12:09PM 33.6650 -86.8992 North 190 219 14,100 2,100 Climbing Atlanta Center
12:10PM 33.7383 -86.8892 North 219 252 15,000 1,740 Climbing Atlanta Center
12:11PM 33.8344 -86.8847 North 283 326 17,600 1,800 Climbing Atlanta Center
12:13PM 34.0344 -86.8883 359° North 330 380 21,000 1,560 Climbing Memphis Center
12:14PM 34.0892 -86.8856 North 331 381 22,000 1,260 Climbing Atlanta Center
12:15PM 34.1850 -86.8839 North 348 400 23,000 1,140 Climbing Atlanta Center
12:16PM 34.2872 -86.8872 358° North 353 406 24,300 1,440 Climbing Atlanta Center
12:17PM 34.3850 -86.9008 353° North 353 406 25,900 1,320 Climbing Atlanta Center
12:18PM 34.4853 -86.8939 North 353 406 27,000 1,020 Climbing Atlanta Center
12:19PM 34.5878 -86.8822 North 358 412 28,000 1,020 Climbing Atlanta Center
12:20PM 34.6925 -86.8683 North 365 420 29,100 960 Climbing Atlanta Center
12:21PM 34.7950 -86.8564 North 370 426 30,000 900 Climbing Atlanta Center
12:22PM 34.8997 -86.8422 North 370 426 31,000 840 Climbing Atlanta Center
12:23PM 35.0572 -86.8258 North 377 434 32,100 780 Climbing Memphis Center
12:24PM 35.1653 -86.8139 North 382 440 33,000 780 Climbing Memphis Center
12:26PM 35.2954 -86.7733 14° North  Level FlightAware Approximate
12:26PM 35.3753 -86.7869 14° North 391 450 34,500  Level Memphis Center
12:27PM 35.4853 -86.7669 North 391 450 35,300 780 Climbing Memphis Center
12:28PM 35.5836 -86.7067 26° Northeast 386 444 36,100 900 Climbing Memphis Center
12:29PM 35.6814 -86.6358 30° Northeast 396 456 37,200 1,020 Climbing Memphis Center
12:30PM 35.7772 -86.5650 31° Northeast 396 456 38,200 960 Climbing Memphis Center
12:31PM 35.8733 -86.4964 30° Northeast 396 456 39,200 960 Climbing Memphis Center
12:32PM 35.9650 -86.4281 31° Northeast 390 449 40,200 900 Climbing Memphis Center
12:33PM 36.0567 -86.3594 31° Northeast 390 449 41,000 360 Climbing Memphis Center
12:34PM 36.1522 -86.2906 30° Northeast 390 449 41,000  Level Memphis Center
12:35PM 36.2583 -86.2158 30° Northeast 390 449 41,000  Level Memphis Center
12:36PM 36.3578 -86.1411 31° Northeast 396 456 41,000  Level Memphis Center
12:37PM 36.4189 -86.1000 28° Northeast 413 475 41,000  Level Indianapolis Center
12:38PM 36.5369 -86.0131 31° Northeast 421 484 41,000  Level Indianapolis Center
12:39PM 36.6378 -85.9381 31° Northeast 420 483 41,000  Level Indianapolis Center
12:40PM 36.7408 -85.8628 30° Northeast 425 489 41,000  Level Indianapolis Center
12:41PM 36.8419 -85.7864 31° Northeast 423 487 41,000  Level Indianapolis Center
12:42PM 36.9444 -85.7111 30° Northeast 423 487 41,000  Level Indianapolis Center
12:43PM 37.0464 -85.6342 31° Northeast 423 487 41,000  Level Indianapolis Center
12:44PM 37.1478 -85.5561 32° Northeast 424 488 41,000  Level Indianapolis Center
12:45PM 37.2561 -85.4769 30° Northeast 421 484 41,000  Level Indianapolis Center
12:46PM 37.3592 -85.3994 31° Northeast 430 495 41,000  Level Indianapolis Center
12:47PM 37.4781 -85.3086 31° Northeast 428 493 41,000  Level Indianapolis Center
12:48PM 37.5811 -85.2303 31° Northeast 431 496 41,000  Level Indianapolis Center
12:49PM 37.6828 -85.1539 31° Northeast 425 489 41,000  Level Indianapolis Center
12:50PM 37.7861 -85.0728 32° Northeast 433 498 41,000  Level Indianapolis Center
12:51PM 37.8925 -84.9936 30° Northeast 440 506 41,000  Level Indianapolis Center
12:52PM 37.9956 -84.9131 32° Northeast 435 501 41,000  Level Indianapolis Center
12:54PM 38.1156 -84.8189 32° Northeast 432 497 41,000  Level Indianapolis Center
12:55PM 38.2217 -84.7372 31° Northeast 441 507 41,000  Level Indianapolis Center
12:56PM 38.3250 -84.6569 31° Northeast 437 503 41,000  Level Indianapolis Center
12:57PM 38.4289 -84.5753 32° Northeast 437 503 41,000  Level Indianapolis Center
12:58PM 38.5333 -84.4928 32° Northeast 438 504 41,000  Level Indianapolis Center
12:59PM 38.6375 -84.4114 31° Northeast 439 505 41,000  Level Indianapolis Center
01:00PM 38.7594 -84.3158 31° Northeast 439 505 41,000  Level Indianapolis Center
01:01PM 38.8628 -84.2325 32° Northeast 438 504 41,000  Level Indianapolis Center
01:02PM 38.9675 -84.1497 32° Northeast 439 505 41,000  Level Indianapolis Center
01:03PM 39.0706 -84.0672 32° Northeast 435 501 41,000  Level Indianapolis Center
01:04PM 39.1744 -83.9847 32° Northeast 436 502 41,000  Level Indianapolis Center
01:05PM 39.3000 -83.9025 27° Northeast 434 499 41,000  Level Indianapolis Center
01:06PM 39.4050 -83.8472 22° Northeast 432 497 41,000  Level Indianapolis Center
01:07PM 39.5142 -83.7781 26° Northeast 436 502 41,000  Level Indianapolis Center
01:08PM 39.6172 -83.6906 33° Northeast 439 505 41,000  Level Indianapolis Center
01:09PM 39.7189 -83.6039 33° Northeast 437 503 41,000  Level Indianapolis Center
01:10PM 39.8400 -83.5008 33° Northeast 434 499 41,000  Level Indianapolis Center
01:11PM 39.9397 -83.4147 33° Northeast 429 494 41,000  Level Indianapolis Center
01:12PM 40.0456 -83.3231 34° Northeast 432 497 41,000  Level Indianapolis Center
01:13PM 40.1478 -83.2353 33° Northeast 434 499 41,000  Level Indianapolis Center
01:14PM 40.2500 -83.1464 34° Northeast 437 503 41,000  Level Indianapolis Center
01:15PM 40.3514 -83.0575 34° Northeast 435 501 41,000  Level Indianapolis Center
01:16PM 40.4536 -82.9683 34° Northeast 436 502 41,000  Level Indianapolis Center
01:17PM 40.5575 -82.8772 34° Northeast 442 509 41,000  Level Indianapolis Center
01:18PM 40.6611 -82.7858 34° Northeast 444 511 41,000  Level Indianapolis Center
01:19PM 40.7653 -82.6947 34° Northeast 444 511 41,000  Level Indianapolis Center
01:20PM 40.8694 -82.6008 34° Northeast 448 516 41,000  Level Indianapolis Center
01:21PM 40.9406 -82.5375 34° Northeast 445 512 41,000  Level Cleveland Center
01:22PM 41.0361 -82.4331 39° Northeast 451 519 41,000  Level Cleveland Center
01:23PM 41.1336 -82.3283 39° Northeast 445 512 41,000  Level Cleveland Center
01:24PM 41.2353 -82.2261 37° Northeast 453 521 41,000  Level Cleveland Center
01:25PM 41.3325 -82.1233 38° Northeast 448 516 41,000  Level Cleveland Center
01:26PM 41.4422 -82.0153 36° Northeast 453 521 41,000  Level Cleveland Center
01:27PM 41.5436 -81.9119 37° Northeast 453 521 41,000  Level Cleveland Center
01:28PM 41.6531 -81.8308 29° Northeast 446 513 41,000  Level Cleveland Center
01:29PM 41.7642 -81.7550 27° Northeast 446 513 41,000  Level Cleveland Center
01:30PM 41.8775 -81.6819 26° Northeast 446 513 41,000  Level Cleveland Center
01:31PM 41.9803 -81.6139 26° Northeast 446 513 41,000  Level Cleveland Center
01:32PM 42.0914 -81.5372 27° Northeast 446 513 41,000  Level Cleveland Center
01:33PM 42.2025 -81.4633 26° Northeast 446 513 41,000  Level Cleveland Center
01:34PM 42.3178 -81.3892 25° Northeast 446 513 41,000  Level Cleveland Center
01:35PM 42.4308 -81.3117 27° Northeast 446 513 41,000  Level Cleveland Center
01:36PM 42.5436 -81.2456 23° Northeast 446 513 41,000  Level Cleveland Center
01:37PM 42.6733 -81.1875 18° North 446 513 41,000  Level Cleveland Center
01:40PM 42.9833 -81.0167 22° Northeast 450 518 41,000  Level Toronto Center
01:41PM 43.1167 -80.9500 20° North 450 518 41,000  Level Toronto Center
01:42PM 43.2167 -80.9167 14° North 450 518 41,000  Level Toronto Center
01:43PM 43.3500 -80.8667 15° North 440 506 41,000  Level Toronto Center
01:44PM 43.4667 -80.8000 23° Northeast 430 495 41,000  Level Toronto Center
01:45PM 43.5833 -80.7667 12° North 440 506 41,000  Level Toronto Center
01:46PM 43.7000 -80.7167 17° North 440 506 41,000  Level Toronto Center
01:47PM 43.8167 -80.6500 22° Northeast 440 506 41,000  Level Toronto Center
01:48PM 43.9333 -80.6000 17° North 440 506 41,000  Level Toronto Center
01:49PM 44.0500 -80.5333 22° Northeast 440 506 41,000  Level Toronto Center
01:50PM 44.1500 -80.5000 13° North 440 506 41,000  Level Toronto Center
01:51PM 44.2833 -80.4167 24° Northeast 440 506 41,000  Level Toronto Center
01:52PM 44.3833 -80.3833 13° North 440 506 41,000  Level Toronto Center
01:53PM 44.5167 -80.3333 15° North 440 506 41,000  Level Toronto Center
01:54PM 44.6167 -80.2667 25° Northeast 440 506 41,000  Level Toronto Center
01:55PM 44.7500 -80.2167 15° North 440 506 41,000  Level Toronto Center
01:56PM 44.8500 -80.1500 25° Northeast 440 506 41,000 -1,320 Level Toronto Center
01:57PM 44.9667 -80.1000 17° North 450 518 38,400 -2,880 Descending Toronto Center
01:58PM 45.1000 -80.0333 19° North 450 518 35,300 -3,060 Descending Toronto Center
01:59PM 45.2167 -79.9833 17° North 450 518 32,300 -3,000 Descending Toronto Center
02:00PM 45.3167 -79.9333 19° North 440 506 29,300 -3,180 Descending Toronto Center
02:01PM 45.4333 -79.8500 27° Northeast 430 495 26,000 -3,180 Descending Toronto Center
02:02PM 45.5333 -79.8000 19° North 400 460 23,000 -3,000 Descending Toronto Center
02:03PM 45.6167 -79.7333 29° Northeast 370 426 20,000 -3,240 Descending Toronto Center
02:04PM 45.7167 -79.6500 30° Northeast 350 403 16,600 -2,580 Descending Toronto Center
02:05PM 45.8000 -79.6000 23° Northeast 350 403 14,900 -1,800 Descending Toronto Center
02:06PM 45.8833 -79.5333 29° Northeast 350 403 13,100 -1,800 Descending Toronto Center
02:07PM 45.9667 -79.4833 23° Northeast 330 380 11,300 -1,800 Descending Toronto Center
02:08PM 46.0333 -79.4333 28° Northeast 310 357 9,600 -1,800 Descending Toronto Center
02:09PM 46.1167 -79.3833 23° Northeast 310 357 7,700 -1,800 Descending Toronto Center
02:10PM 46.2000 -79.3167 29° Northeast 300 345 6,000 -1,800 Descending Toronto Center
02:11PM 46.2667 -79.2667 27° Northeast 290 334 4,100 -1,500 Descending Toronto Center
02:12PM 46.3333 -79.2500 10° North 250 288 3,100 -600 Descending Toronto Center
02:13PM 46.3833 -79.2500 360° North 180 207 2,900 -480 Descending Toronto Center
02:15PM 46.3667 -79.3667 258° West 120 138 1,800 -600 Descending Toronto Center
02:16PM 46.3500 -79.3833 215° Southwest 100 115 1,200 -600 Descending Toronto Center